Time;durP1;ratioP1;P1;durP2;ratioP2;P2;SDS_P1;SDS_P2;PMS_P1;PMS_P2;Temp;Humidity;BMP_temperature;BMP_pressure;BME280_temperature;BME280_humidity;BME280_pressure;Samples;Min_cycle;Max_cycle;Signal;HPM_P1;HPM_P2
2022/10/12 00:01:42;;;;;;;13.60;7.85;;;;;;;3.51;100.00;102555.59;5033647;28;20027;-76
2022/10/12 00:04:08;;;;;;;12.73;7.05;;;;;;;3.28;100.00;102514.03;5015282;28;20109;-77
2022/10/12 00:06:33;;;;;;;13.60;7.05;;;;;;;3.45;100.00;102550.53;5033411;28;20029;-77
2022/10/12 00:08:59;;;;;;;12.15;7.60;;;;;;;3.32;100.00;102531.84;5033413;28;20083;-75
2022/10/12 00:11:28;;;;;;;13.02;7.97;;;;;;;3.38;100.00;102544.59;5033201;28;20026;-77
2022/10/12 00:13:54;;;;;;;12.70;7.95;;;;;;;3.24;100.00;102522.53;5033231;28;20072;-77
2022/10/12 00:16:21;;;;;;;14.15;7.85;;;;;;;3.39;100.00;102553.13;5033441;28;20056;-79
2022/10/12 00:18:51;;;;;;;15.02;8.52;;;;;;;3.37;100.00;102547.16;5033328;28;20032;-78
2022/10/12 00:21:17;;;;;;;16.63;9.27;;;;;;;3.34;100.00;102545.50;5033351;28;20025;-78
2022/10/12 00:23:43;;;;;;;17.00;9.25;;;;;;;3.32;100.00;102548.88;5033126;28;20029;-76
2022/10/12 00:26:14;;;;;;;17.98;8.93;;;;;;;3.20;100.00;102533.63;5033053;28;20026;-78
2022/10/12 00:28:40;;;;;;;15.15;8.63;;;;;;;3.28;100.00;102554.88;5033188;28;20112;-78
2022/10/12 00:31:11;;;;;;;16.45;9.68;;;;;;;3.29;100.00;102552.31;5033258;28;20017;-79
2022/10/12 00:33:37;;;;;;;17.75;9.25;;;;;;;3.29;100.00;102552.31;5032959;28;20093;-79
2022/10/12 00:36:18;;;;;;;18.60;10.27;;;;;;;3.28;100.00;102547.22;5034977;28;20075;-79
2022/10/12 00:38:44;;;;;;;16.73;9.75;;;;;;;3.26;100.00;102554.88;5037156;28;20026;-78
2022/10/12 00:41:10;;;;;;;13.85;9.27;;;;;;;3.26;100.00;102552.34;5036910;28;20043;-78
2022/10/12 00:43:40;;;;;;;17.27;10.35;;;;;;;3.01;100.00;102510.75;5037014;28;20366;-78
2022/10/12 00:46:13;;;;;;;20.35;10.63;;;;;;;3.27;100.00;102551.47;5037022;28;20040;-78
2022/10/12 00:48:39;;;;;;;16.35;9.55;;;;;;;3.22;100.00;102534.47;5037008;28;20080;-79
2022/10/12 00:51:09;;;;;;;14.48;9.75;;;;;;;3.21;100.00;102537.88;5019133;28;20508;-77
2022/10/12 00:53:42;;;;;;;18.60;10.32;;;;;;;3.37;100.00;102547.16;5036481;28;20053;-75
2022/10/12 00:56:13;;;;;;;18.05;8.52;;;;;;;3.39;100.00;102548.84;5036655;28;20070;-79
2022/10/12 00:58:38;;;;;;;14.83;9.90;;;;;;;3.43;100.00;102553.06;5036866;28;20079;-77
2022/10/12 01:01:05;;;;;;;16.17;8.95;;;;;;;3.39;100.00;102542.91;5036781;28;20435;-78
2022/10/12 01:03:31;;;;;;;13.02;8.95;;;;;;;3.51;100.00;102555.59;5036733;28;20469;-78
2022/10/12 01:05:58;;;;;;;16.45;9.40;;;;;;;3.46;100.00;102536.91;5036671;28;20045;-78
2022/10/12 01:08:23;;;;;;;18.92;9.05;;;;;;;3.51;100.00;102541.97;5036508;28;20018;-78
2022/10/12 01:10:49;;;;;;;14.73;9.20;;;;;;;3.52;100.00;102529.19;5036659;28;20032;-79
2022/10/12 01:13:14;;;;;;;19.48;9.93;;;;;;;3.69;100.00;102542.69;5036379;28;20029;-78
2022/10/12 01:15:53;;;;;;;16.40;10.27;;;;;;;3.70;100.00;102538.44;5036294;28;20044;-78
2022/10/12 01:18:26;;;;;;;21.00;10.32;;;;;;;3.69;100.00;102527.38;5036594;28;20103;-77
2022/10/12 01:20:59;;;;;;;16.13;9.95;;;;;;;3.82;100.00;102538.34;5036392;28;20022;-79
2022/10/12 01:23:41;;;;;;;18.02;9.93;;;;;;;3.69;100.00;102506.94;5036489;28;20032;-78
2022/10/12 01:26:39;;;;;;;17.65;11.13;;;;;;;3.85;100.00;102520.44;5036428;28;20082;-79
2022/10/12 01:29:26;;;;;;;17.30;10.13;;;;;;;3.89;100.00;102522.09;5035906;28;20028;-79
2022/10/12 01:32:09;;;;;;;16.00;10.85;;;;;;;3.76;100.00;102502.63;5036299;28;20104;-79
2022/10/12 01:34:47;;;;;;;15.10;10.38;;;;;;;3.84;100.00;102520.47;5036187;28;20045;-79
2022/10/12 01:37:22;;;;;;;18.33;10.55;;;;;;;3.79;100.00;102517.09;5036111;28;20040;-79
2022/10/12 01:39:56;;;;;;;17.88;10.18;;;;;;;3.79;100.00;102512.81;5018373;28;20117;-77
2022/10/12 01:42:32;;;;;;;15.75;10.65;;;;;;;3.74;100.00;102512.03;5036122;28;20026;-78
2022/10/12 01:45:12;;;;;;;15.90;10.00;;;;;;;3.75;100.00;102511.16;5035949;28;20112;-78
2022/10/12 01:47:40;;;;;;;15.32;10.32;;;;;;;3.60;100.00;102493.38;5035665;28;20022;-78
2022/10/12 01:50:09;;;;;;;15.52;10.30;;;;;;;3.69;100.00;102504.38;5017900;28;20025;-75
2022/10/12 01:53:12;;;;;;;16.10;10.90;;;;;;;3.71;100.00;102510.31;5036023;28;20028;-76
2022/10/12 01:55:44;;;;;;;18.83;10.32;;;;;;;3.56;100.00;102486.59;5035736;28;20033;-79
2022/10/12 01:58:41;;;;;;;16.33;10.18;;;;;;;3.72;100.00;102506.91;5035706;28;20028;-76
2022/10/12 02:01:19;;;;;;;16.10;10.68;;;;;;;3.57;100.00;102489.16;4955599;29;20035;-79
2022/10/12 02:03:59;;;;;;;18.13;10.57;;;;;;;3.69;100.00;102500.97;4953976;29;20475;-78
2022/10/12 02:06:31;;;;;;;15.80;10.15;;;;;;;3.39;100.00;102451.81;4936243;29;20110;-74
2022/10/12 02:09:09;;;;;;;16.70;10.57;;;;;;;3.68;100.00;102496.72;4936126;29;20478;-79
2022/10/12 02:11:37;;;;;;;17.10;10.68;;;;;;;3.54;100.00;102476.41;4920028;29;20126;-76
2022/10/12 02:14:12;;;;;;;15.77;10.73;;;;;;;3.55;100.00;102480.66;4920044;29;20052;-76
2022/10/12 02:16:54;;;;;;;19.02;10.30;;;;;;;3.65;100.00;102489.09;4936116;29;20039;-77
2022/10/12 02:19:24;;;;;;;14.90;10.20;;;;;;;3.53;100.00;102473.84;4935877;29;20095;-76
2022/10/12 02:21:52;;;;;;;15.38;10.02;;;;;;;3.60;100.00;102490.81;4936075;29;20059;-79
2022/10/12 02:24:20;;;;;;;14.70;10.50;;;;;;;3.58;100.00;102488.28;4936036;29;20047;-79
2022/10/12 02:26:48;;;;;;;15.15;10.70;;;;;;;3.51;100.00;102473.00;4935960;29;20115;-79
2022/10/12 02:29:19;;;;;;;17.35;11.35;;;;;;;3.36;100.00;102462.06;4935717;29;20032;-79
2022/10/12 02:31:57;;;;;;;15.65;9.77;;;;;;;3.37;100.00;102457.81;4935680;29;20063;-76
2022/10/12 02:34:44;;;;;;;15.90;10.20;;;;;;;3.45;100.00;102481.59;4934624;29;20534;-79
2022/10/12 02:37:20;;;;;;;18.02;10.18;;;;;;;3.41;100.00;102479.88;4948686;28;20556;-79
2022/10/12 02:39:54;;;;;;;14.70;9.98;;;;;;;3.35;100.00;102474.84;4996217;28;20389;-77
2022/10/12 02:42:28;;;;;;;15.13;9.85;;;;;;;3.02;100.00;102427.38;5014235;28;20033;-76
2022/10/12 02:44:57;;;;;;;14.68;10.13;;;;;;;3.05;100.00;102447.81;5013963;28;20032;-76
2022/10/12 02:47:25;;;;;;;15.38;9.90;;;;;;;3.16;100.00;102477.50;5014277;28;20501;-77
2022/10/12 02:49:53;;;;;;;13.68;9.98;;;;;;;3.13;100.00;102482.59;5014215;28;20072;-76
2022/10/12 02:52:19;;;;;;;17.80;11.23;;;;;;;3.13;100.00;102480.06;5014094;28;20419;-76
2022/10/12 02:54:44;;;;;;;15.82;10.38;;;;;;;3.08;100.00;102474.13;5013872;28;20034;-77
2022/10/12 02:57:09;;;;;;;14.98;9.60;;;;;;;2.95;100.00;102454.66;5013838;28;20057;-79
2022/10/12 02:59:35;;;;;;;15.48;10.50;;;;;;;3.04;100.00;102471.59;4995301;28;20109;-76
2022/10/12 03:02:00;;;;;;;15.48;10.30;;;;;;;3.04;100.00;102472.44;5013909;28;20022;-76
2022/10/12 03:04:25;;;;;;;16.33;10.50;;;;;;;3.03;100.00;102462.25;5013845;28;20037;-79
2022/10/12 03:06:51;;;;;;;17.25;11.20;;;;;;;3.03;100.00;102469.91;5014041;28;20029;-79
2022/10/12 03:09:16;;;;;;;15.90;10.18;;;;;;;2.86;100.00;102437.69;5013885;28;20034;-79
2022/10/12 03:11:43;;;;;;;15.15;10.88;;;;;;;2.91;100.00;102447.00;5013788;28;20050;-79
2022/10/12 03:14:13;;;;;;;17.23;10.82;;;;;;;3.01;100.00;102464.81;5013150;28;20458;-79
2022/10/12 03:16:39;;;;;;;16.60;10.95;;;;;;;3.02;100.00;102461.41;5013643;28;20425;-79
2022/10/12 03:19:04;;;;;;;17.17;10.82;;;;;;;3.00;100.00;102458.00;5013735;28;20030;-79
2022/10/12 03:21:29;;;;;;;14.75;10.80;;;;;;;2.98;100.00;102459.72;5013550;28;20037;-78
2022/10/12 03:23:55;;;;;;;19.23;11.50;;;;;;;2.97;100.00;102455.50;5013500;28;20034;-79
2022/10/12 03:26:20;;;;;;;18.23;10.32;;;;;;;2.93;100.00;102456.34;5013473;28;20076;-79
2022/10/12 03:28:45;;;;;;;14.10;10.55;;;;;;;2.89;100.00;102457.22;5013226;28;20107;-79
2022/10/12 03:31:11;;;;;;;16.80;10.80;;;;;;;2.75;100.00;102436.03;5013278;28;20060;-78
2022/10/12 03:33:36;;;;;;;16.17;10.93;;;;;;;2.80;100.00;102460.66;4972684;28;1083082;-78
2022/10/12 03:36:01;;;;;;;17.23;10.50;;;;;;;2.74;100.00;102450.47;5033911;28;20032;-79
2022/10/12 03:38:27;;;;;;;15.15;10.52;;;;;;;2.70;100.00;102453.06;5033832;28;20404;-79
2022/10/12 03:40:52;;;;;;;16.02;10.25;;;;;;;2.58;100.00;102433.56;5033910;28;20465;-78
2022/10/12 03:43:18;;;;;;;14.73;10.20;;;;;;;2.61;100.00;102448.84;5033606;28;20033;-79
2022/10/12 03:45:43;;;;;;;17.73;10.90;;;;;;;2.57;100.00;102445.47;5033718;28;20128;-79
2022/10/12 03:48:09;;;;;;;14.93;10.65;;;;;;;2.44;100.00;102430.19;5033674;28;20029;-79
2022/10/12 03:50:35;;;;;;;18.13;10.73;;;;;;;2.58;100.00;102447.16;4998818;28;20488;-79
2022/10/12 03:53:02;;;;;;;17.65;11.65;;;;;;;2.38;100.00;102423.44;5033672;28;20021;-79
2022/10/12 03:55:27;;;;;;;18.17;10.73;;;;;;;2.58;100.00;102451.41;5033441;28;20120;-79
2022/10/12 03:57:52;;;;;;;15.55;10.77;;;;;;;2.41;100.00;102417.47;5033412;28;20096;-79
2022/10/12 04:00:18;;;;;;;17.15;10.95;;;;;;;2.47;100.00;102432.75;5015803;28;20029;-79
2022/10/12 04:02:43;;;;;;;16.42;12.05;;;;;;;2.42;100.00;102429.38;5033406;28;20508;-77
2022/10/12 04:05:08;;;;;;;17.20;11.18;;;;;;;2.46;100.00;102433.59;5033507;28;20026;-79
2022/10/12 04:07:34;;;;;;;16.55;11.70;;;;;;;2.50;100.00;102440.41;5033432;28;20040;-79
2022/10/12 04:09:59;;;;;;;21.50;11.88;;;;;;;2.47;100.00;102438.72;5015235;28;20037;-78
2022/10/12 04:12:25;;;;;;;17.77;12.75;;;;;;;2.48;100.00;102431.91;5015467;28;20051;-78
2022/10/12 04:14:50;;;;;;;16.90;12.57;;;;;;;2.34;100.00;102420.91;5033132;28;20078;-76
2022/10/12 04:17:16;;;;;;;18.98;12.15;;;;;;;2.30;100.00;102420.91;5033362;28;20026;-75
2022/10/12 04:19:42;;;;;;;18.33;12.07;;;;;;;2.29;100.00;102418.38;5033210;28;20025;-77
2022/10/12 04:22:08;;;;;;;20.45;12.63;;;;;;;2.20;100.00;102403.09;5033390;28;20022;-78
2022/10/12 04:24:33;;;;;;;21.05;12.07;;;;;;;2.36;100.00;102439.56;5033138;28;20384;-79
2022/10/12 04:26:58;;;;;;;21.45;13.10;;;;;;;2.10;100.00;102392.09;5033269;28;20021;-75
2022/10/12 04:29:24;;;;;;;18.80;12.75;;;;;;;2.34;100.00;102442.13;5033149;28;20381;-79
2022/10/12 04:31:49;;;;;;;21.63;13.07;;;;;;;2.34;100.00;102438.75;5032516;28;20030;-78
2022/10/12 04:34:15;;;;;;;23.42;13.88;;;;;;;2.37;100.00;102436.19;5032843;28;20055;-78
2022/10/12 04:36:40;;;;;;;20.23;13.40;;;;;;;2.36;100.00;102432.81;5032993;28;20052;-76
2022/10/12 04:39:06;;;;;;;21.35;13.13;;;;;;;2.25;100.00;102419.22;5032845;28;20104;-79
2022/10/12 04:41:31;;;;;;;19.40;12.75;;;;;;;2.29;100.00;102431.97;5033044;28;20075;-79
2022/10/12 04:43:56;;;;;;;24.20;13.82;;;;;;;2.19;100.00;102411.59;5033084;28;20029;-79
2022/10/12 04:46:22;;;;;;;18.98;13.38;;;;;;;2.01;100.00;102395.50;5032594;28;20024;-77
2022/10/12 04:48:47;;;;;;;17.77;12.02;;;;;;;2.29;100.00;102434.50;5032963;28;20093;-79
2022/10/12 04:51:12;;;;;;;19.35;12.90;;;;;;;2.28;100.00;102445.56;5032854;28;20030;-77
2022/10/12 04:53:38;;;;;;;23.38;13.85;;;;;;;2.19;100.00;102437.09;5032876;28;20104;-76
2022/10/12 04:56:04;;;;;;;18.90;13.00;;;;;;;2.28;100.00;102448.13;5032831;28;20410;-77
2022/10/12 04:58:30;;;;;;;22.17;13.80;;;;;;;2.26;100.00;102444.72;5032691;28;20022;-78
2022/10/12 05:00:55;;;;;;;19.55;13.32;;;;;;;2.27;100.00;102446.41;5032886;28;20028;-78
2022/10/12 05:03:21;;;;;;;24.38;14.38;;;;;;;2.28;100.00;102439.63;5032697;28;20025;-76
2022/10/12 05:05:47;;;;;;;22.33;13.65;;;;;;;2.30;100.00;102450.66;5032717;28;20041;-77
2022/10/12 05:08:12;;;;;;;22.42;13.65;;;;;;;2.33;100.00;102445.53;5032790;28;20029;-78
2022/10/12 05:10:38;;;;;;;26.45;16.00;;;;;;;2.29;100.00;102439.63;5032707;28;20023;-78
2022/10/12 05:13:03;;;;;;;20.95;14.32;;;;;;;2.28;100.00;102444.72;5032668;28;20209;-76
2022/10/12 05:15:29;;;;;;;21.90;14.82;;;;;;;2.26;100.00;102444.72;5014485;28;20076;-78
2022/10/12 05:17:54;;;;;;;23.98;14.65;;;;;;;2.17;100.00;102426.91;5032516;28;20116;-78
2022/10/12 05:20:19;;;;;;;24.13;14.85;;;;;;;2.25;100.00;102437.91;5032659;28;20416;-77
2022/10/12 05:22:45;;;;;;;21.77;15.13;;;;;;;2.24;100.00;102422.63;5035281;28;20026;-76
2022/10/12 05:25:10;;;;;;;20.40;15.48;;;;;;;2.23;100.00;102419.22;5036308;28;20436;-79
2022/10/12 05:27:36;;;;;;;20.55;14.68;;;;;;;2.21;100.00;102430.28;5036410;28;20033;-79
2022/10/12 05:30:03;;;;;;;20.95;14.68;;;;;;;2.18;100.00;102426.06;5036474;28;20101;-76
2022/10/12 05:32:28;;;;;;;21.50;15.15;;;;;;;2.11;100.00;102410.78;5035883;28;20124;-78
2022/10/12 05:34:54;;;;;;;24.50;15.52;;;;;;;2.18;100.00;102422.66;5035836;28;20699;-74
2022/10/12 05:37:19;;;;;;;19.35;14.20;;;;;;;2.19;100.00;102425.19;5018415;28;20535;-76
2022/10/12 05:39:45;;;;;;;22.92;13.85;;;;;;;2.08;100.00;102405.69;5036147;28;20416;-79
2022/10/12 05:42:10;;;;;;;20.13;13.27;;;;;;;2.18;100.00;102427.75;5036064;28;20032;-76
2022/10/12 05:44:36;;;;;;;20.63;14.63;;;;;;;2.06;100.00;102404.81;5035985;28;20021;-76
2022/10/12 05:47:01;;;;;;;22.70;15.13;;;;;;;2.20;100.00;102428.59;5017599;28;20030;-77
2022/10/12 05:49:27;;;;;;;21.05;15.23;;;;;;;2.18;100.00;102417.56;5035859;28;20101;-75
2022/10/12 05:51:52;;;;;;;21.92;14.73;;;;;;;2.21;100.00;102425.19;5035832;28;20018;-76
2022/10/12 05:54:18;;;;;;;21.45;14.90;;;;;;;2.20;100.00;102410.75;5035952;28;20036;-79
2022/10/12 05:56:43;;;;;;;23.90;15.15;;;;;;;2.02;100.00;102381.06;5035752;28;20037;-77
2022/10/12 05:59:10;;;;;;;22.88;15.13;;;;;;;2.21;100.00;102409.91;5035891;28;20060;-76
2022/10/12 06:01:35;;;;;;;23.85;15.48;;;;;;;2.35;100.00;102425.13;5035569;28;20021;-76
2022/10/12 06:04:00;;;;;;;22.58;14.80;;;;;;;2.42;100.00;102429.38;5035483;28;20030;-76
2022/10/12 06:06:26;;;;;;;27.70;15.77;;;;;;;2.45;100.00;102422.53;5035424;28;20045;-79
2022/10/12 06:08:51;;;;;;;21.00;14.45;;;;;;;2.48;100.00;102414.91;5035656;28;20056;-76
2022/10/12 06:11:17;;;;;;;21.08;15.13;;;;;;;2.52;100.00;102423.38;5035508;28;20018;-76
2022/10/12 06:13:42;;;;;;;24.90;15.20;;;;;;;2.50;100.00;102407.25;5035584;28;20139;-77
2022/10/12 06:16:07;;;;;;;21.83;15.25;;;;;;;2.23;100.00;102364.84;5035366;28;20075;-75
2022/10/12 06:18:32;;;;;;;28.25;16.17;;;;;;;2.59;100.00;102414.84;5035036;28;20067;-79
2022/10/12 06:20:58;;;;;;;19.95;15.10;;;;;;;2.70;100.00;102414.81;5035078;28;20061;-76
2022/10/12 06:23:23;;;;;;;22.80;15.38;;;;;;;2.75;100.00;102410.50;5035340;28;20057;-77
2022/10/12 06:25:50;;;;;;;25.00;15.57;;;;;;;2.92;100.00;102421.47;5035305;28;20021;-76
2022/10/12 06:28:19;;;;;;;26.48;15.75;;;;;;;2.97;100.00;102409.56;5035070;28;20025;-76
2022/10/12 06:30:44;;;;;;;26.88;15.50;;;;;;;3.12;100.00;102413.69;5035138;28;20036;-74
2022/10/12 06:33:10;;;;;;;26.42;16.48;;;;;;;2.95;100.00;102367.91;5031085;28;20034;-74
2022/10/12 06:35:35;;;;;;;25.00;16.05;;;;;;;3.30;100.00;102410.19;5035018;28;20469;-79
2022/10/12 06:38:00;;;;;;;25.52;15.27;;;;;;;3.44;100.00;102418.56;5035057;28;20116;-78
2022/10/12 06:40:26;;;;;;;25.35;15.30;;;;;;;3.41;100.00;102390.50;5236425;22;20057;-75
2022/10/12 06:42:51;;;;;;;20.70;14.80;;;;;;;3.64;100.00;102419.28;5074926;28;20029;-75
2022/10/12 06:45:17;;;;;;;22.05;15.38;;;;;;;3.77;100.00;102421.72;5074847;28;20032;-75
2022/10/12 06:47:46;;;;;;;24.63;15.40;;;;;;;3.78;100.00;102402.97;5074913;28;20051;-76
2022/10/12 06:50:11;;;;;;;21.85;15.45;;;;;;;3.90;100.00;102405.41;5049474;28;20469;-75
2022/10/12 06:52:37;;;;;;;24.85;14.88;;;;;;;3.97;100.00;102384.88;5054776;28;20039;-73
2022/10/12 06:55:03;;;;;;;26.55;16.45;;;;;;;4.30;100.00;102410.91;5054521;28;20033;-76
2022/10/12 06:57:29;;;;;;;25.92;15.50;;;;;;;4.34;100.00;102398.97;5054365;28;20079;-75
2022/10/12 06:59:54;;;;;;;27.15;16.15;;;;;;;4.54;100.00;102408.09;5054463;28;20421;-74
2022/10/12 07:02:20;;;;;;;28.20;16.17;;;;;;;4.49;100.00;102389.38;5054502;28;20056;-73
2022/10/12 07:04:52;;;;;;;26.27;16.80;;;;;;;4.66;100.00;102393.44;5053950;28;20029;-74
2022/10/12 07:07:18;;;;;;;27.48;16.02;;;;;;;4.83;100.00;102411.97;5053166;28;20469;-73
2022/10/12 07:09:43;;;;;;;28.52;17.77;;;;;;;4.89;100.00;102407.59;5054299;28;20056;-75
2022/10/12 07:12:09;;;;;;;34.17;17.80;;;;;;;4.98;100.00;102421.13;5054136;28;20377;-75
2022/10/12 07:14:34;;;;;;;28.40;17.98;;;;;;;5.03;100.00;102412.53;5054029;28;20028;-77
2022/10/12 07:16:59;;;;;;;29.75;17.27;;;;;;;5.09;100.00;102409.88;5036062;28;20056;-78
2022/10/12 07:19:25;;;;;;;29.27;17.98;;;;;;;5.14;100.00;102410.66;5053855;28;20484;-79
2022/10/12 07:21:50;;;;;;;28.45;17.85;;;;;;;5.07;100.00;102395.41;5053840;28;20166;-75
2022/10/12 07:24:15;;;;;;;31.38;19.63;;;;;;;5.27;100.00;102407.91;5053921;28;20088;-76
2022/10/12 07:26:41;;;;;;;32.15;18.83;;;;;;;5.21;100.00;102390.94;5035543;28;20105;-77
2022/10/12 07:29:06;;;;;;;31.73;19.55;;;;;;;5.35;100.00;102401.78;5053697;28;20130;-79
2022/10/12 07:31:31;;;;;;;30.75;18.63;;;;;;;5.37;100.00;102402.63;5053861;28;20024;-80
2022/10/12 07:33:56;;;;;;;40.47;19.58;;;;;;;5.31;100.00;102384.81;5053592;28;20024;-80
2022/10/12 07:36:22;;;;;;;31.80;19.83;;;;;;;5.21;100.00;102344.84;5053651;28;20021;-79
2022/10/12 07:38:48;;;;;;;27.63;18.77;;;;;;;5.56;100.00;102397.19;5053569;28;20035;-79
2022/10/12 07:41:14;;;;;;;34.55;19.50;;;;;;;5.65;100.00;102404.72;5053337;28;20511;-80
2022/10/12 07:43:39;;;;;;;31.35;19.92;;;;;;;5.65;100.00;102394.47;5053865;28;20025;-78
2022/10/12 07:46:06;;;;;;;35.00;19.88;;;;;;;5.66;100.00;102386.75;5053145;28;20537;-79
2022/10/12 07:48:32;;;;;;;31.45;19.15;;;;;;;5.70;100.00;102375.59;5063173;28;20071;-75
2022/10/12 07:51:09;;;;;;;30.17;19.02;;;;;;;5.94;100.00;102404.25;5073464;28;20028;-79
2022/10/12 07:53:35;;;;;;;28.63;19.38;;;;;;;6.10;100.00;102410.78;5073332;28;20043;-76
2022/10/12 07:56:02;;;;;;;29.42;20.48;;;;;;;6.19;100.00;102413.16;5073266;28;20031;-79
2022/10/12 07:58:28;;;;;;;33.08;20.05;;;;;;;6.33;100.00;102408.59;5073263;28;20024;-80
2022/10/12 08:00:53;;;;;;;31.70;21.95;;;;;;;6.47;100.00;102418.56;5073349;28;20065;-78
2022/10/12 08:03:18;;;;;;;27.88;20.25;;;;;;;6.49;100.00;102400.56;5073241;28;20472;-78
2022/10/12 08:05:44;;;;;;;29.40;20.30;;;;;;;6.56;100.00;102395.28;5072961;28;20123;-79
2022/10/12 08:08:09;;;;;;;33.50;20.83;;;;;;;6.80;100.00;102416.19;5072798;28;20041;-78
2022/10/12 08:10:35;;;;;;;36.22;22.73;;;;;;;6.80;100.00;102414.47;5073365;28;20379;-79
2022/10/12 08:13:00;;;;;;;38.05;21.95;;;;;;;6.51;100.00;102371.47;5072971;28;20414;-80
2022/10/12 08:15:26;;;;;;;33.67;21.17;;;;;;;6.66;100.00;102389.97;5073016;28;20028;-77
2022/10/12 08:17:51;;;;;;;34.55;21.50;;;;;;;6.88;100.00;102412.59;5073024;28;20025;-79
2022/10/12 08:20:17;;;;;;;38.38;22.45;;;;;;;6.94;100.00;102414.16;5072864;28;20070;-79
2022/10/12 08:22:42;;;;;;;37.60;22.15;;;;;;;6.86;100.00;102398.91;5072861;28;20035;-77
2022/10/12 08:25:07;;;;;;;39.83;23.33;;;;;;;6.91;100.00;102396.25;5055097;28;20071;-80
2022/10/12 08:27:33;;;;;;;35.17;22.40;;;;;;;7.04;100.00;102409.66;5055459;28;20091;-79
2022/10/12 08:29:58;;;;;;;41.72;25.50;;;;;;;7.02;100.00;102406.28;5073081;28;20033;-80
2022/10/12 08:32:24;;;;;;;40.00;23.38;;;;;;;6.98;100.00;102397.81;5072879;28;20158;-80
2022/10/12 08:34:49;;;;;;;37.03;25.17;;;;;;;7.06;100.00;102411.31;5072612;28;20361;-79
2022/10/12 08:37:14;;;;;;;36.65;24.05;;;;;;;7.10;100.00;102406.97;5072789;28;20028;-79
2022/10/12 08:39:40;;;;;;;40.08;24.27;;;;;;;7.13;100.00;102404.31;5072515;28;20048;-79
2022/10/12 08:42:26;;;;;;;39.67;25.27;;;;;;;7.17;100.00;102401.63;5072787;28;20056;-78
2022/10/12 08:45:21;;;;;;;41.67;26.55;;;;;;;7.21;100.00;102397.28;5072825;28;20042;-80
2022/10/12 08:47:57;;;;;;;47.63;26.98;;;;;;;7.29;100.00;102397.09;5072717;28;20031;-77
2022/10/12 08:50:32;;;;;;;44.08;26.83;;;;;;;7.33;100.00;102399.53;5072539;28;20056;-77
2022/10/12 08:53:14;;;;;;;44.15;26.77;;;;;;;7.15;100.00;102366.56;5071492;28;20028;-75
2022/10/12 08:55:43;;;;;;;43.13;27.33;;;;;;;7.26;100.00;102372.28;5072890;28;20035;-76
2022/10/12 08:58:19;;;;;;;41.22;27.33;;;;;;;7.36;100.00;102385.75;5076131;28;20024;-79
2022/10/12 09:00:49;;;;;;;47.05;28.90;;;;;;;7.40;100.00;102379.69;5076456;28;20023;-76
2022/10/12 09:03:32;;;;;;;48.88;26.92;;;;;;;7.54;100.00;102397.31;5058574;28;20447;-77
2022/10/12 09:06:07;;;;;;;42.85;29.00;;;;;;;7.60;100.00;102402.31;5076211;28;20078;-79
2022/10/12 09:08:47;;;;;;;44.67;28.20;;;;;;;7.66;100.00;102400.41;5076487;28;20487;-77
2022/10/12 09:11:34;;;;;;;44.72;29.00;;;;;;;7.66;100.00;102405.56;5076232;28;20383;-77
2022/10/12 09:14:05;;;;;;;51.88;30.00;;;;;;;7.70;100.00;102411.47;5076371;28;20364;-78
2022/10/12 09:16:35;;;;;;;54.38;31.13;;;;;;;7.75;100.00;102417.34;5058328;28;20376;-80
2022/10/12 09:19:08;;;;;;;49.83;31.75;;;;;;;7.72;100.00;102404.56;5076217;28;20021;-79
2022/10/12 09:21:34;;;;;;;52.30;31.25;;;;;;;7.94;100.00;102418.53;5075997;28;20103;-86
2022/10/12 09:24:02;;;;;;;47.90;31.58;;;;;;;8.02;100.00;102418.34;5076132;28;20032;-79
2022/10/12 09:26:38;;;;;;;51.17;31.80;;;;;;;8.07;100.00;102426.81;5076249;28;20536;-83
2022/10/12 09:29:24;;;;;;;51.05;32.03;;;;;;;8.12;100.00;102414.63;5076095;28;20035;-78
2022/10/12 09:32:02;;;;;;;55.00;31.58;;;;;;;8.20;100.00;102414.44;5075993;28;20036;-79
2022/10/12 09:34:27;;;;;;;47.97;32.55;;;;;;;8.26;100.00;102414.28;5075876;28;20395;-79
2022/10/12 09:36:54;;;;;;;50.83;33.97;;;;;;;8.14;100.00;102369.13;5075886;28;20100;-82
2022/10/12 09:39:26;;;;;;;52.83;34.38;;;;;;;8.52;100.00;102385.22;5075984;28;20052;-86
2022/10/12 09:41:53;;;;;;;57.88;34.55;;;;;;;8.62;100.00;102384.06;5057400;28;20040;-81
2022/10/12 09:44:34;;;;;;;51.80;33.67;;;;;;;8.75;100.00;102369.94;5075608;28;20111;-87
2022/10/12 09:47:05;;;;;;;52.47;32.47;;;;;;;8.98;99.97;102389.84;5075703;28;20090;-84
2022/10/12 09:49:44;;;;;;;51.67;34.58;;;;;;;9.11;98.92;102385.13;5075750;28;20036;-83
2022/10/12 09:52:12;;;;;;;55.33;34.85;;;;;;;9.43;98.52;102395.22;5075552;28;20029;-84
2022/10/12 09:55:10;;;;;;;46.85;32.55;;;;;;;9.58;97.93;102401.63;5075332;28;20025;-85
2022/10/12 09:57:38;;;;;;;51.05;32.58;;;;;;;9.56;95.38;102379.38;5074974;28;20488;-86
2022/10/12 10:00:24;;;;;;;48.72;32.40;;;;;;;9.76;95.41;102402.75;5075639;28;20032;-81
2022/10/12 10:02:50;;;;;;;47.80;31.23;;;;;;;9.76;94.82;102393.25;5075265;28;20052;-85
2022/10/12 10:05:26;;;;;;;48.25;31.65;;;;;;;9.84;94.36;102393.00;5075440;28;20021;-86
2022/10/12 10:07:52;;;;;;;47.10;30.50;;;;;;;9.92;94.13;102390.97;5075207;28;20107;-85
2022/10/12 10:10:27;;;;;;;42.92;28.40;;;;;;;9.78;93.01;102347.59;5075209;28;20388;-79
2022/10/12 10:13:18;;;;;;;42.30;28.98;;;;;;;9.89;92.01;102357.53;5075705;28;20464;-88
2022/10/12 10:16:11;;;;;;;39.15;28.65;;;;;;;10.05;93.38;102369.00;5075589;28;20032;-89
2022/10/12 10:18:57;;;;;;;48.40;29.92;;;;;;;9.93;94.13;102333.34;5075343;28;20128;-87
2022/10/12 10:21:39;;;;;;;43.28;29.15;;;;;;;9.24;91.83;102202.56;5074944;28;20032;-80
2022/10/12 10:24:27;;;;;;;45.63;29.08;;;;;;;10.18;92.25;102342.75;5075458;28;20028;-81
2022/10/12 10:26:56;;;;;;;44.95;30.15;;;;;;;10.35;91.77;102376.56;5075034;28;20388;-80
2022/10/12 10:29:31;;;;;;;42.85;29.20;;;;;;;10.37;91.34;102381.66;5057174;28;20032;-89
2022/10/12 10:32:10;;;;;;;39.17;27.02;;;;;;;10.39;90.35;102375.53;5075155;28;20221;-80
2022/10/12 10:34:36;;;;;;;44.63;28.27;;;;;;;10.23;90.97;102354.63;5075043;28;20110;-78
2022/10/12 10:37:03;;;;;;;42.28;27.25;;;;;;;10.46;89.56;102378.75;5074788;28;20075;-80
2022/10/12 10:39:51;;;;;;;45.20;29.20;;;;;;;10.51;90.48;102381.97;5074894;28;20028;-81
2022/10/12 10:42:24;;;;;;;40.22;28.95;;;;;;;10.59;89.93;102367.03;5074622;28;20109;-80
2022/10/12 10:44:51;;;;;;;40.85;27.95;;;;;;;10.65;89.84;102371.97;5056757;28;20089;-81
2022/10/12 10:47:20;;;;;;;37.03;26.50;;;;;;;10.72;89.72;102367.41;5074600;28;20028;-85
2022/10/12 10:49:53;;;;;;;37.65;25.67;;;;;;;10.59;87.99;102344.63;5074686;28;20031;-79
2022/10/12 10:52:31;;;;;;;40.83;25.98;;;;;;;10.61;88.90;102353.16;5074737;28;20017;-88
2022/10/12 10:55:09;;;;;;;38.83;25.02;;;;;;;10.75;88.86;102367.28;5074782;28;20130;-83
2022/10/12 10:57:37;;;;;;;37.55;23.73;;;;;;;10.77;86.45;102358.56;5074444;28;20035;-80
2022/10/12 11:00:11;;;;;;;34.97;22.38;;;;;;;10.87;87.36;102362.47;5074439;28;20051;-81
2022/10/12 11:02:55;;;;;;;34.55;22.63;;;;;;;10.94;87.76;102352.75;5074080;28;20369;-81
2022/10/12 11:05:23;;;;;;;37.13;22.85;;;;;;;11.00;85.88;102352.47;5074484;28;20017;-86
2022/10/12 11:07:52;;;;;;;41.28;23.55;;;;;;;11.03;85.84;102356.72;5074111;28;20055;-82
2022/10/12 11:10:24;;;;;;;33.78;23.52;;;;;;;11.03;85.84;102351.53;5074307;28;20020;-83
2022/10/12 11:12:55;;;;;;;36.65;23.20;;;;;;;10.97;84.67;102334.50;5073121;28;20040;-82
2022/10/12 11:16:07;;;;;;;34.30;20.67;;;;;;;11.07;86.20;102333.22;5074436;28;20056;-82
2022/10/12 11:18:42;;;;;;;;;;;;;;;11.06;86.67;102331.56;4976842;28;20474;-80
2022/10/12 11:21:16;;;;;;;33.22;20.27;;;;;;;10.88;84.45;102286.63;4990822;28;20056;-86
2022/10/12 11:26:18;;;;;;;33.22;19.48;;;;;;;11.22;82.75;102320.59;5215603;22;20046;-80